UPSVAC Airport Information Service

Phoenix Sky Harbor International Airport

ICAO: KPHX Country: United States
Latitude: 33.4343 Longitude: -112.011
Latest Arrival : UPSJUMP (KSDF-KPHX) Latest Departure : UPSJUMP (KPHX-EDDM)


WX CaptureLIVE
Data provided by noaa.gov | Fetched at 13:55:47

METAR : KPHX 141251Z 09004KT 10SM FEW120 19/00 A2980 RMK AO2 SLP074 T01890000

TAF : KPHX 141135Z 1412/1518 09004KT P6SM SKC FM141700 19005KT P6SM SKC FM142000 23010KT P6SM FEW250 FM142300 26010G18KT P6SM BKN250 FM150300 25008KT P6SM BKN250


Runway Data for KPHX
Data provided by openaviationdata.com

Runway ID Mag Var Hdg Length Elevation Surface ILS Freq ILS Id ILS Slope
07L 12 78° 10287 ft 1135 ft Asphalt 111.5 IPHX 3
07R 12 78° 7791 ft 1135 ft Concrete 110.75 IAHA 3
8 12 78° 11477 ft 1135 ft Concrete 111.75 ISYQ 3
25L 12 258° 7791 ft 1135 ft Concrete 110.75 IRJG 3
25R 12 258° 10287 ft 1135 ft Asphalt -- -- --
26 12 258° 11477 ft 1135 ft Concrete 111.75 ICWJ 3

Phoenix Sky Harbor International Airport, United States
Use only for reference purposes



Not for navigational purposes.